createdAt,value
2019-03-21T08:44:22.472Z,8412.00
2019-03-21T08:45:22.459Z,8564.00
2019-03-21T08:46:22.458Z,8860.00
2019-03-21T08:47:22.428Z,8992.00
2019-03-21T08:48:22.417Z,9088.00
2019-03-21T08:49:22.408Z,9100.00
2019-03-21T08:50:22.395Z,9056.00
2019-03-21T08:51:22.385Z,9104.00
2019-03-21T08:52:22.383Z,9400.00
2019-03-21T08:53:22.361Z,9560.00
2019-03-21T08:54:22.352Z,9668.00
2019-03-21T08:55:22.346Z,9888.00
2019-03-21T08:56:22.327Z,10012.00
2019-03-21T08:57:22.328Z,10116.00
2019-03-21T08:58:22.308Z,10404.00
2019-03-21T08:59:22.295Z,10624.00
2019-03-21T09:00:33.586Z,10124.00
2019-03-21T09:01:23.272Z,10252.00
2019-03-21T09:02:22.270Z,10776.00
2019-03-21T09:03:22.252Z,11380.00
2019-03-21T09:04:22.241Z,11332.00
2019-03-21T09:05:22.229Z,12132.00
2019-03-21T09:06:22.219Z,11288.00
2019-03-21T09:07:22.216Z,11780.00
2019-03-21T09:08:22.196Z,12160.00
2019-03-21T09:09:22.183Z,12168.00
2019-03-21T09:10:22.175Z,12368.00
2019-03-21T09:11:22.164Z,12560.00
2019-03-21T09:12:22.164Z,12840.00
2019-03-21T09:13:22.148Z,12732.00
2019-03-21T09:14:22.130Z,13692.00
2019-03-21T09:15:22.117Z,13792.00
2019-03-21T09:16:22.105Z,14016.00
2019-03-21T09:17:22.104Z,14464.00
2019-03-21T09:18:22.083Z,14560.00
2019-03-21T09:19:22.072Z,14528.00
2019-03-21T09:20:22.062Z,15904.00
2019-03-21T09:21:22.050Z,16896.00
2019-03-21T09:22:22.067Z,17536.00
2019-03-21T09:23:22.028Z,17504.00
2019-03-21T09:24:22.018Z,17664.00
2019-03-21T09:25:22.009Z,17856.00
2019-03-21T09:26:21.998Z,17056.00
2019-03-21T09:27:21.995Z,16064.00
2019-03-21T09:28:21.976Z,15488.00
2019-03-21T09:29:21.962Z,15744.00
2019-03-21T09:30:21.951Z,15712.00
2019-03-21T09:31:21.940Z,16032.00
2019-03-21T09:32:22.030Z,15840.00
2019-03-21T09:33:21.918Z,15648.00
2019-03-21T09:34:21.909Z,15200.00
2019-03-21T09:35:21.897Z,15328.00
2019-03-21T09:36:21.885Z,14752.00
2019-03-21T09:37:21.883Z,14144.00
2019-03-21T09:38:21.869Z,14656.00
2019-03-21T09:39:21.854Z,14720.00
2019-03-21T09:40:21.842Z,15040.00
2019-03-21T09:41:21.833Z,15136.00
2019-03-21T09:42:21.829Z,15136.00
2019-03-21T09:43:21.811Z,15296.00
2019-03-21T09:44:21.796Z,15424.00
2019-03-21T09:45:21.784Z,15648.00
2019-03-21T09:46:21.777Z,15872.00
2019-03-21T09:47:21.777Z,16320.00
2019-03-21T09:48:21.751Z,17760.00
2019-03-21T09:49:21.743Z,37472.00
2019-03-21T09:50:21.731Z,53920.00
2019-03-21T09:51:30.638Z,51616.00
2019-03-21T09:52:22.722Z,50656.00
2019-03-21T09:53:21.698Z,56160.00
2019-03-21T09:54:21.689Z,59104.00
2019-03-21T09:55:21.676Z,61504.00
2019-03-21T09:56:23.934Z,62784.00
2019-03-21T09:57:21.656Z,63104.00
2019-03-21T09:58:21.653Z,62752.00
2019-03-21T09:59:21.632Z,64480.00
2019-03-21T10:00:21.621Z,66912.00
2019-03-21T10:01:21.611Z,66720.00
2019-03-21T10:02:21.600Z,63904.00
2019-03-21T10:03:21.599Z,37504.00
2019-03-21T10:04:21.592Z,18112.00
2019-03-21T10:05:21.568Z,31360.00
2019-03-21T10:06:21.557Z,58656.00
2019-03-21T10:07:21.547Z,66464.00
2019-03-21T10:08:21.547Z,69280.00
2019-03-21T10:09:21.525Z,67392.00
2019-03-21T10:10:21.517Z,63328.00
2019-03-21T10:11:21.506Z,60480.00
2019-03-21T10:12:21.493Z,61632.00
2019-03-21T10:13:21.493Z,64320.00
2019-03-21T10:14:21.471Z,70784.00
2019-03-21T10:15:21.462Z,68960.00
2019-03-21T10:16:21.451Z,67424.00
2019-03-21T10:17:21.441Z,66272.00
2019-03-21T10:18:21.440Z,67360.00
2019-03-21T10:19:21.422Z,69312.00
2019-03-21T10:20:21.410Z,68288.00
2019-03-21T10:21:21.399Z,70400.00
2019-03-21T10:22:21.390Z,68960.00
2019-03-21T10:23:21.387Z,69600.00
2019-03-21T10:24:21.366Z,67904.00
2019-03-21T10:25:21.356Z,67616.00
2019-03-21T10:26:21.345Z,67168.00
2019-03-21T10:27:21.336Z,63808.00
2019-03-21T10:28:21.335Z,47200.00
2019-03-21T10:29:21.340Z,22400.00
2019-03-21T10:30:21.305Z,22112.00
2019-03-21T10:31:21.294Z,48800.00
2019-03-21T10:32:21.283Z,63680.00
2019-03-21T10:33:21.281Z,57216.00
2019-03-21T10:34:21.270Z,61344.00
2019-03-21T10:35:21.263Z,57920.00
2019-03-21T10:36:21.240Z,63584.00
2019-03-21T10:37:21.231Z,68448.00
2019-03-21T10:38:21.238Z,70848.00
2019-03-21T10:39:21.213Z,68864.00
2019-03-21T10:40:21.199Z,59872.00
2019-03-21T10:41:21.191Z,46656.00
2019-03-21T10:42:21.181Z,38400.00
2019-03-21T10:43:21.178Z,20960.00
2019-03-21T10:44:21.158Z,14816.00
2019-03-21T10:45:21.146Z,14496.00
2019-03-21T10:46:21.141Z,14272.00
2019-03-21T10:47:21.128Z,14176.00
2019-03-21T10:48:23.486Z,14112.00
2019-03-21T10:49:21.105Z,14112.00
2019-03-21T10:50:21.098Z,14016.00
2019-03-21T10:51:21.083Z,13776.00
2019-03-21T10:52:21.071Z,13952.00
2019-03-21T10:53:21.073Z,13952.00
2019-03-21T10:54:23.532Z,13736.00
2019-03-21T10:55:21.045Z,13740.00
2019-03-21T10:56:21.035Z,13788.00
2019-03-21T10:57:21.021Z,13748.00
2019-03-21T10:58:21.010Z,13716.00
2019-03-21T10:59:21.007Z,13656.00
2019-03-21T11:00:20.990Z,13644.00
2019-03-21T11:01:20.981Z,13624.00
2019-03-21T11:02:20.965Z,13504.00
2019-03-21T11:03:20.955Z,13468.00
2019-03-21T11:04:20.953Z,13456.00
2019-03-21T11:05:23.069Z,13432.00
2019-03-21T11:06:20.924Z,13452.00
2019-03-21T11:07:20.913Z,13376.00
2019-03-21T11:08:20.903Z,13404.00
2019-03-21T11:09:20.903Z,13348.00
2019-03-21T11:10:20.879Z,13320.00
2019-03-21T11:11:20.868Z,13276.00
2019-03-21T11:12:20.858Z,13368.00
2019-03-21T11:13:20.849Z,14432.00
2019-03-21T11:14:20.849Z,17728.00
2019-03-21T11:15:20.830Z,13676.00
2019-03-21T11:16:20.815Z,23200.00
2019-03-21T11:17:20.805Z,39200.00
2019-03-21T11:18:20.837Z,41664.00
2019-03-21T11:19:20.790Z,31936.00
2019-03-21T11:20:20.772Z,21120.00
2019-03-21T11:21:20.759Z,15520.00
2019-03-21T11:22:20.749Z,14272.00
2019-03-21T11:23:20.740Z,14144.00
2019-03-21T11:24:20.736Z,13940.00
2019-03-21T11:25:20.717Z,13912.00
2019-03-21T11:26:20.706Z,13948.00
2019-03-21T11:27:20.696Z,13972.00
2019-03-21T11:28:20.685Z,13988.00
2019-03-21T11:29:20.683Z,14176.00
2019-03-21T11:30:20.664Z,14336.00
2019-03-21T11:31:20.652Z,14624.00
2019-03-21T11:32:20.642Z,15168.00
2019-03-21T11:33:20.630Z,19872.00
2019-03-21T11:34:20.632Z,30176.00
2019-03-21T11:35:20.608Z,40192.00
2019-03-21T11:36:20.601Z,48576.00
2019-03-21T11:37:20.587Z,57056.00
2019-03-21T11:38:20.577Z,67904.00
2019-03-21T11:39:20.576Z,74208.00
2019-03-21T11:40:20.556Z,76800.00
2019-03-21T11:41:20.544Z,73376.00
2019-03-21T11:42:20.535Z,71488.00
2019-03-21T11:43:20.520Z,72768.00
2019-03-21T11:44:20.522Z,75104.00
2019-03-21T11:45:20.505Z,75168.00
2019-03-21T11:46:20.504Z,76960.00
2019-03-21T11:47:20.486Z,76608.00
2019-03-21T11:48:20.481Z,76608.00
2019-03-21T11:49:20.475Z,79968.00
2019-03-21T11:50:20.447Z,80288.00
2019-03-21T11:51:20.436Z,79392.00
2019-03-21T11:52:20.428Z,79232.00
2019-03-21T11:53:20.427Z,77536.00
2019-03-21T11:54:20.405Z,74112.00
2019-03-21T11:55:20.426Z,72864.00
2019-03-21T11:56:20.416Z,74080.00
2019-03-21T11:57:20.372Z,75072.00
2019-03-21T11:58:20.364Z,73568.00
2019-03-21T11:59:20.352Z,66400.00
2019-03-21T12:00:20.349Z,65056.00
2019-03-21T12:01:20.330Z,68416.00
2019-03-21T12:02:27.017Z,73408.00
2019-03-21T12:03:21.306Z,73440.00
2019-03-21T12:04:20.304Z,69472.00
2019-03-21T12:05:20.299Z,67616.00
2019-03-21T12:06:20.278Z,71456.00
2019-03-21T12:07:20.265Z,75680.00
2019-03-21T12:08:20.258Z,76224.00
2019-03-21T12:09:20.246Z,72672.00
2019-03-21T12:10:20.290Z,67968.00
2019-03-21T12:11:21.421Z,65312.00
2019-03-21T12:12:20.220Z,66048.00
2019-03-21T12:13:20.203Z,64640.00
2019-03-21T12:14:20.209Z,70688.00
2019-03-21T12:15:20.194Z,69504.00
2019-03-21T12:16:20.172Z,70944.00
2019-03-21T12:17:20.167Z,72224.00
2019-03-21T12:18:20.157Z,75232.00
2019-03-21T12:19:20.146Z,77472.00
2019-03-21T12:20:20.142Z,77536.00
2019-03-21T12:21:20.122Z,72768.00
2019-03-21T12:22:29.572Z,69792.00
2019-03-21T12:23:21.100Z,66016.00
2019-03-21T12:24:20.090Z,64448.00
2019-03-21T12:25:20.101Z,67392.00
2019-03-21T12:26:20.076Z,70656.00
2019-03-21T12:27:20.062Z,71456.00
2019-03-21T12:28:20.048Z,70528.00
2019-03-21T12:29:20.044Z,75776.00
2019-03-21T12:30:20.043Z,80256.00
2019-03-21T12:31:20.019Z,67584.00
2019-03-21T12:32:20.014Z,48000.00
2019-03-21T12:33:20.004Z,37920.00
2019-03-21T12:34:19.988Z,48640.00
2019-03-21T12:35:19.977Z,64512.00
2019-03-21T12:36:19.978Z,78208.00
2019-03-21T12:37:19.957Z,79456.00
2019-03-21T12:38:19.954Z,76224.00
2019-03-21T12:39:19.940Z,75648.00
2019-03-21T12:40:19.929Z,74176.00
2019-03-21T12:41:19.926Z,69504.00
2019-03-21T12:42:19.906Z,69984.00
2019-03-21T12:43:19.897Z,71904.00
2019-03-21T12:44:19.893Z,74112.00
2019-03-21T12:45:19.878Z,73248.00
2019-03-21T12:46:19.876Z,73376.00
2019-03-21T12:47:30.631Z,70976.00
2019-03-21T12:48:20.847Z,62336.00
2019-03-21T12:49:19.834Z,55488.00
2019-03-21T12:50:19.829Z,56928.00
2019-03-21T12:51:19.824Z,65600.00
2019-03-21T12:52:19.805Z,68992.00
2019-03-21T12:53:19.796Z,69792.00
2019-03-21T12:54:19.787Z,65824.00
2019-03-21T12:55:19.777Z,61216.00
2019-03-21T12:56:19.941Z,60992.00
2019-03-21T12:57:19.757Z,61280.00
2019-03-21T12:58:19.746Z,60032.00
2019-03-21T12:59:19.736Z,50592.00
2019-03-21T13:00:19.726Z,51904.00
2019-03-21T13:01:19.723Z,34560.00
2019-03-21T13:02:31.827Z,15744.00
2019-03-21T13:03:20.698Z,10672.00
2019-03-21T13:04:19.684Z,10240.00
2019-03-21T13:05:19.677Z,10140.00
2019-03-21T13:06:19.674Z,15872.00
2019-03-21T13:07:20.093Z,33952.00
2019-03-21T13:08:19.644Z,46752.00
2019-03-21T13:09:19.632Z,43776.00
2019-03-21T13:10:19.623Z,32992.00
2019-03-21T13:11:19.630Z,35520.00
2019-03-21T13:12:19.608Z,56128.00
2019-03-21T13:13:19.591Z,58016.00
2019-03-21T13:14:19.580Z,51968.00
2019-03-21T13:15:29.454Z,55424.00
2019-03-21T13:16:20.573Z,56512.00
2019-03-21T13:17:19.552Z,56672.00
2019-03-21T13:18:19.540Z,50176.00
2019-03-21T13:19:19.530Z,26368.00
2019-03-21T13:20:19.521Z,21952.00
2019-03-21T13:21:19.510Z,41600.00
2019-03-21T13:22:19.508Z,47968.00
2019-03-21T13:23:19.488Z,35680.00
2019-03-21T13:24:19.732Z,18720.00
2019-03-21T13:25:19.467Z,9232.00
2019-03-21T13:26:19.455Z,8676.00
2019-03-21T13:27:19.454Z,8508.00
2019-03-21T13:28:19.438Z,8468.00
2019-03-21T13:29:19.431Z,8460.00
2019-03-21T13:30:19.413Z,8504.00
2019-03-21T13:31:19.406Z,8580.00
2019-03-21T13:32:19.400Z,8600.00
2019-03-21T13:33:19.382Z,8644.00
2019-03-21T13:34:19.373Z,8736.00
2019-03-21T13:35:19.365Z,8816.00
2019-03-21T13:36:19.350Z,8696.00
2019-03-21T13:37:19.347Z,8376.00
2019-03-21T13:38:19.327Z,8252.00
2019-03-21T13:39:19.319Z,8228.00
2019-03-21T13:40:19.308Z,8224.00
2019-03-21T13:41:19.306Z,8336.00
2019-03-21T13:42:19.294Z,8480.00
2019-03-21T13:43:19.274Z,8492.00
2019-03-21T13:44:19.264Z,8460.00
2019-03-21T13:45:19.255Z,8408.00
2019-03-21T13:46:19.248Z,8328.00
2019-03-21T13:47:19.240Z,8256.00
2019-03-21T13:48:19.219Z,8128.00
2019-03-21T13:49:19.211Z,7988.00
2019-03-21T13:50:19.200Z,7868.00
2019-03-21T13:51:19.188Z,7788.00
2019-03-21T13:52:19.186Z,7692.00
2019-03-21T13:53:19.337Z,7656.00
2019-03-21T13:54:19.159Z,7656.00
2019-03-21T13:55:19.144Z,7588.00
2019-03-21T13:56:19.140Z,7592.00
2019-03-21T13:57:19.145Z,7588.00
2019-03-21T13:58:19.113Z,7532.00
2019-03-21T13:59:19.103Z,7540.00
2019-03-21T14:00:19.093Z,7592.00
2019-03-21T14:01:19.080Z,7620.00
2019-03-21T14:02:19.081Z,7616.00
2019-03-21T14:03:25.066Z,7612.00
2019-03-21T14:04:20.048Z,7468.00
2019-03-21T14:05:19.037Z,7284.00
2019-03-21T14:06:19.025Z,7176.00
2019-03-21T14:07:19.018Z,7148.00
2019-03-21T14:08:19.011Z,7172.00
2019-03-21T14:09:20.418Z,7276.00
2019-03-21T14:10:18.982Z,7428.00
2019-03-21T14:11:19.404Z,7448.00
2019-03-21T14:12:18.960Z,7416.00
2019-03-21T14:13:18.958Z,7328.00
2019-03-21T14:14:18.939Z,7216.00
2019-03-21T14:15:18.929Z,7100.00
2019-03-21T14:16:18.916Z,7008.00
2019-03-21T14:17:22.277Z,6920.00
2019-03-21T14:18:18.904Z,6876.00
2019-03-21T14:19:18.884Z,6828.00
2019-03-21T14:20:18.874Z,6796.00
2019-03-21T14:21:18.870Z,6720.00
2019-03-21T14:22:21.289Z,6644.00
2019-03-21T14:23:18.848Z,6648.00
2019-03-21T14:24:18.832Z,6636.00
2019-03-21T14:25:18.819Z,6572.00
2019-03-21T14:26:18.808Z,6540.00
2019-03-21T14:27:18.796Z,6516.00
2019-03-21T14:28:18.804Z,6532.00
2019-03-21T14:29:18.778Z,6576.00
2019-03-21T14:30:18.770Z,6620.00
2019-03-21T14:31:18.753Z,6544.00
2019-03-21T14:32:18.746Z,6504.00
2019-03-21T14:33:18.742Z,6344.00
2019-03-21T14:34:18.725Z,6152.00
2019-03-21T14:35:18.716Z,6136.00
2019-03-21T14:36:18.699Z,6236.00
2019-03-21T14:37:18.693Z,6196.00
2019-03-21T14:38:26.057Z,6024.00
2019-03-21T14:39:19.668Z,5808.00
2019-03-21T14:40:18.665Z,5656.00
2019-03-21T14:41:18.646Z,5596.00
2019-03-21T14:42:18.635Z,5612.00
2019-03-21T14:43:18.696Z,5664.00
2019-03-21T14:44:18.624Z,5724.00
2019-03-21T14:45:18.602Z,5748.00
2019-03-21T14:46:18.591Z,5792.00
2019-03-21T14:47:18.581Z,5868.00
2019-03-21T14:48:18.569Z,6012.00
2019-03-21T14:49:18.569Z,6156.00
2019-03-21T14:50:18.549Z,6308.00
2019-03-21T14:51:18.541Z,6432.00
2019-03-21T14:52:18.526Z,6464.00
2019-03-21T14:53:28.270Z,6488.00
2019-03-21T14:54:19.521Z,6420.00
2019-03-21T14:55:18.499Z,6280.00
2019-03-21T14:56:18.487Z,6132.00
2019-03-21T14:57:18.474Z,6028.00
2019-03-21T14:58:18.461Z,6056.00
2019-03-21T14:59:18.468Z,6320.00
2019-03-21T15:00:18.439Z,6304.00
2019-03-21T15:01:18.431Z,6296.00
2019-03-21T15:02:18.418Z,6300.00
2019-03-21T15:03:18.408Z,6316.00
2019-03-21T15:04:18.407Z,6300.00
2019-03-21T15:05:18.387Z,6212.00
2019-03-21T15:06:18.375Z,6072.00
2019-03-21T15:07:18.811Z,5928.00
2019-03-21T15:08:18.353Z,5816.00
2019-03-21T15:09:18.352Z,5720.00
2019-03-21T15:10:18.336Z,5660.00
2019-03-21T15:11:18.325Z,5632.00
2019-03-21T15:12:18.311Z,5640.00
2019-03-21T15:13:18.327Z,5612.00
2019-03-21T15:14:18.322Z,5632.00
2019-03-21T15:15:18.290Z,5632.00
2019-03-21T15:16:18.265Z,5628.00
2019-03-21T15:17:18.254Z,5620.00
2019-03-21T15:18:18.245Z,5488.00
2019-03-21T15:19:18.267Z,5148.00
2019-03-21T15:20:18.223Z,4660.00
2019-03-21T15:21:18.213Z,4256.00
2019-03-21T15:22:18.199Z,3932.00
2019-03-21T15:23:18.189Z,3512.00
2019-03-21T15:24:18.186Z,3032.00
2019-03-21T15:25:18.167Z,2584.00
2019-03-21T15:26:18.157Z,2264.00
2019-03-21T15:27:18.146Z,2020.00
2019-03-21T15:28:18.132Z,1880.00
2019-03-21T15:29:18.133Z,1784.00
2019-03-21T15:30:18.333Z,1728.00
2019-03-21T15:31:18.101Z,1704.00
2019-03-21T15:32:18.105Z,1684.00
2019-03-21T15:33:18.081Z,1668.00
2019-03-21T15:34:18.085Z,1648.00
2019-03-21T15:35:18.062Z,1636.00
2019-03-21T15:36:18.045Z,1624.00
2019-03-21T15:37:19.741Z,1612.00
2019-03-21T15:38:18.023Z,1600.00
2019-03-21T15:39:18.012Z,1596.00
2019-03-21T15:40:18.010Z,1580.00
2019-03-21T15:41:17.991Z,1572.00
2019-03-21T15:42:17.978Z,1560.00
2019-03-21T15:43:17.968Z,1540.00
2019-03-21T15:44:17.955Z,1524.00
2019-03-21T15:45:22.078Z,1512.00
2019-03-21T15:46:18.935Z,1500.00
2019-03-21T15:47:17.924Z,1492.00
2019-03-21T15:48:20.760Z,1476.00
2019-03-21T15:49:18.075Z,1464.00
2019-03-21T15:50:17.906Z,1456.00
2019-03-21T15:51:17.899Z,1448.00
2019-03-21T15:52:17.999Z,1436.00
2019-03-21T15:53:17.856Z,1436.00
2019-03-21T15:54:17.846Z,1432.00
2019-03-21T15:55:17.843Z,1420.00
2019-03-21T15:56:17.828Z,1416.00
2019-03-21T15:57:17.813Z,1408.00
2019-03-21T15:58:17.803Z,1404.00
2019-03-21T15:59:17.794Z,1400.00
2019-03-21T16:00:17.807Z,1392.00
2019-03-21T16:01:17.769Z,1380.00
2019-03-21T16:02:17.777Z,1368.00
2019-03-21T16:03:17.749Z,1360.00
2019-03-21T16:04:17.737Z,1356.00
2019-03-21T16:05:17.735Z,1348.00
2019-03-21T16:06:17.718Z,1336.00
2019-03-21T16:07:17.704Z,1328.00
2019-03-21T16:08:17.691Z,1320.00
2019-03-21T16:09:17.682Z,1308.00
2019-03-21T16:10:17.679Z,1304.00
2019-03-21T16:11:17.660Z,1292.00
2019-03-21T16:12:17.647Z,1288.00
2019-03-21T16:13:17.635Z,1276.00
2019-03-21T16:14:17.624Z,1264.00
2019-03-21T16:15:17.625Z,1260.00
2019-03-21T16:16:17.601Z,1248.00
2019-03-21T16:17:17.594Z,1236.00
2019-03-21T16:18:17.579Z,1228.00
2019-03-21T16:19:17.573Z,1212.00
2019-03-21T16:20:17.575Z,1200.00
2019-03-21T16:21:17.548Z,1192.00
2019-03-21T16:22:17.533Z,1180.00
2019-03-21T16:23:17.532Z,1176.00
2019-03-21T16:24:17.514Z,1164.00
2019-03-21T16:25:17.514Z,1152.00
2019-03-21T16:26:17.491Z,1144.00
2019-03-21T16:27:17.478Z,1132.00
2019-03-21T16:28:20.079Z,1128.00
2019-03-21T16:29:17.464Z,1116.00
2019-03-21T16:30:17.451Z,1108.00
2019-03-21T16:31:17.435Z,1096.00
2019-03-21T16:32:17.421Z,1084.00
2019-03-21T16:33:17.473Z,1072.00
2019-03-21T16:34:17.397Z,1064.00
2019-03-21T16:35:17.401Z,1048.00
2019-03-21T16:36:17.378Z,1036.00
2019-03-21T16:37:17.367Z,1024.00
2019-03-21T16:38:17.430Z,1012.00
2019-03-21T16:39:17.342Z,1000.00
2019-03-21T16:40:17.329Z,988.00
2019-03-21T16:41:17.326Z,980.00
2019-03-21T16:42:17.366Z,964.00
2019-03-21T16:43:17.298Z,952.00
2019-03-21T16:44:17.285Z,940.00
2019-03-21T16:45:17.276Z,928.00
2019-03-21T16:46:17.291Z,916.00
2019-03-21T16:47:17.251Z,900.00
2019-03-21T16:48:17.258Z,892.00
2019-03-21T16:49:17.231Z,880.00
2019-03-21T16:50:17.217Z,868.00
2019-03-21T16:51:17.217Z,856.00
2019-03-21T16:52:17.197Z,844.00
2019-03-21T16:53:17.181Z,828.00
2019-03-21T16:54:17.665Z,816.00
2019-03-21T16:55:17.159Z,800.00
2019-03-21T16:56:17.155Z,788.00
2019-03-21T16:57:17.135Z,772.00
2019-03-21T16:58:17.124Z,756.00
2019-03-21T16:59:17.111Z,744.00
2019-03-21T17:00:17.948Z,732.00
2019-03-21T17:01:17.099Z,720.00
2019-03-21T17:02:17.080Z,708.00
2019-03-21T17:03:17.067Z,688.00
2019-03-21T17:04:17.061Z,676.00
2019-03-21T17:05:17.046Z,660.00
2019-03-21T17:06:17.044Z,644.00
2019-03-21T17:07:17.024Z,632.00
2019-03-21T17:08:17.029Z,616.00
2019-03-21T17:09:16.999Z,600.00
2019-03-21T17:10:17.024Z,588.00
2019-03-21T17:11:17.010Z,572.00
2019-03-21T17:12:16.982Z,556.00
2019-03-21T17:13:16.955Z,544.00
2019-03-21T17:14:16.947Z,528.00
2019-03-21T17:15:16.938Z,512.00
2019-03-21T17:16:16.931Z,500.00
2019-03-21T17:17:16.911Z,484.00
2019-03-21T17:18:16.906Z,468.00
2019-03-21T17:19:16.899Z,452.00
2019-03-21T17:20:16.885Z,440.00
2019-03-21T17:21:16.881Z,424.00
2019-03-21T17:22:16.856Z,408.00
2019-03-21T17:23:16.846Z,392.00
2019-03-21T17:24:28.453Z,376.00
2019-03-21T17:25:17.821Z,360.00
2019-03-21T17:26:16.823Z,348.00
2019-03-21T17:27:16.806Z,328.00
2019-03-21T17:28:16.795Z,316.00
2019-03-21T17:29:16.779Z,300.00
2019-03-21T17:30:16.769Z,288.00
2019-03-21T17:31:16.789Z,272.00
2019-03-21T17:32:17.460Z,260.00
2019-03-21T17:33:16.741Z,244.00
2019-03-21T17:34:16.724Z,232.00
2019-03-21T17:35:16.713Z,216.00
2019-03-21T17:36:16.705Z,204.00
2019-03-21T17:37:16.703Z,188.00
2019-03-21T17:38:16.684Z,180.00
2019-03-21T17:39:16.706Z,164.00
2019-03-21T17:40:16.663Z,152.00
2019-03-21T17:41:16.649Z,140.00
2019-03-21T17:42:16.645Z,132.00
2019-03-21T17:43:16.626Z,120.00
2019-03-21T17:44:16.617Z,108.00
2019-03-21T17:45:16.603Z,96.00
2019-03-21T17:46:16.593Z,92.00
2019-03-21T17:47:16.593Z,80.00
2019-03-21T17:48:16.567Z,72.00
2019-03-21T17:49:16.563Z,68.00
2019-03-21T17:50:16.549Z,60.00
2019-03-21T17:51:16.536Z,52.00
2019-03-21T17:52:16.539Z,44.00
2019-03-21T17:53:16.513Z,40.00
2019-03-21T17:54:16.501Z,36.00
2019-03-21T17:55:16.495Z,32.00
2019-03-21T17:56:16.480Z,28.00
2019-03-21T17:57:16.501Z,24.00
2019-03-21T17:58:16.456Z,20.00
2019-03-21T17:59:16.446Z,20.00
2019-03-21T18:00:16.436Z,12.00
2019-03-21T18:01:16.426Z,12.00
2019-03-21T18:02:16.432Z,12.00
2019-03-21T18:03:16.407Z,8.00
2019-03-21T18:04:16.394Z,8.00
2019-03-21T18:05:16.381Z,4.00
2019-03-21T18:06:16.370Z,4.00
2019-03-21T18:07:16.356Z,4.00
2019-03-21T18:08:16.355Z,4.00
2019-03-21T18:09:16.333Z,0.00
2019-03-21T18:10:16.323Z,4.00
2019-03-21T18:11:16.312Z,0.00
2019-03-21T18:12:16.301Z,4.00
2019-03-21T18:13:16.299Z,4.00
2019-03-21T18:14:16.279Z,0.00
2019-03-21T18:15:16.267Z,0.00
2019-03-21T18:16:18.576Z,0.00
2019-03-21T18:17:16.245Z,0.00
2019-03-21T18:18:16.241Z,0.00
2019-03-21T18:19:16.340Z,0.00
2019-03-21T18:20:16.216Z,0.00
2019-03-21T18:21:16.201Z,0.00
2019-03-21T18:22:16.193Z,0.00
2019-03-21T18:23:16.230Z,0.00
2019-03-21T18:24:16.177Z,0.00
2019-03-21T18:25:16.159Z,0.00
2019-03-21T18:26:16.146Z,0.00
2019-03-21T18:27:16.138Z,0.00
2019-03-21T18:28:16.132Z,0.00
2019-03-21T18:29:16.116Z,0.00
2019-03-21T18:30:16.100Z,0.00
2019-03-21T18:31:16.108Z,0.00
2019-03-21T18:32:16.154Z,0.00
2019-03-21T18:33:16.082Z,0.00
2019-03-21T18:34:16.065Z,0.00
2019-03-21T18:35:16.072Z,0.00
2019-03-21T18:36:16.039Z,0.00
2019-03-21T18:37:16.031Z,0.00
2019-03-21T18:38:16.025Z,0.00
2019-03-21T18:39:16.003Z,0.00
2019-03-21T18:40:15.990Z,0.00
2019-03-21T18:41:16.002Z,0.00
2019-03-21T18:42:15.967Z,0.00
2019-03-21T18:43:15.975Z,0.00
2019-03-21T18:44:15.942Z,0.00
2019-03-21T18:45:15.931Z,0.00
2019-03-21T18:46:15.925Z,0.00
2019-03-21T18:47:15.984Z,0.00
2019-03-21T18:48:15.933Z,0.00
2019-03-21T18:49:15.888Z,0.00
2019-03-21T18:50:15.887Z,0.00
2019-03-21T18:51:15.868Z,0.00
2019-03-21T18:52:15.858Z,0.00
2019-03-21T18:53:15.855Z,0.00
2019-03-21T18:54:15.834Z,0.00
2019-03-21T18:55:15.871Z,0.00
2019-03-21T18:56:15.813Z,0.00
2019-03-21T18:57:15.798Z,0.00
2019-03-21T18:58:15.798Z,0.00
2019-03-21T18:59:15.786Z,0.00
2019-03-21T19:00:15.770Z,0.00
2019-03-21T19:01:15.754Z,0.00
2019-03-21T19:02:15.741Z,0.00
2019-03-21T19:03:15.748Z,0.00
2019-03-21T19:04:15.721Z,0.00
2019-03-21T19:05:15.719Z,0.00
2019-03-21T19:06:15.721Z,0.00
2019-03-21T19:07:15.692Z,0.00
2019-03-21T19:08:15.680Z,0.00
2019-03-21T19:09:15.692Z,0.00
2019-03-21T19:10:15.666Z,0.00
2019-03-21T19:11:15.656Z,0.00
2019-03-21T19:12:15.633Z,0.00
2019-03-21T19:13:15.620Z,0.00
2019-03-21T19:14:15.625Z,0.00
2019-03-21T19:15:15.603Z,0.00
2019-03-21T19:16:15.588Z,0.00
2019-03-21T19:17:15.576Z,0.00
2019-03-21T19:18:15.576Z,0.00
2019-03-21T19:19:15.566Z,0.00
2019-03-21T19:20:15.542Z,0.00
2019-03-21T19:21:15.544Z,0.00
2019-03-21T19:22:15.524Z,0.00
2019-03-21T19:23:15.532Z,0.00
2019-03-21T19:24:15.513Z,0.00
2019-03-21T19:25:19.131Z,0.00
2019-03-21T19:26:15.477Z,0.00
2019-03-21T19:27:15.477Z,0.00
2019-03-21T19:28:15.453Z,0.00
2019-03-21T19:29:15.456Z,0.00
2019-03-21T19:30:15.436Z,0.00
2019-03-21T19:31:15.421Z,0.00
2019-03-21T19:32:15.411Z,0.00
2019-03-21T19:33:15.406Z,0.00
2019-03-21T19:34:15.398Z,0.00
2019-03-21T19:35:15.376Z,0.00
2019-03-21T19:36:15.370Z,0.00
2019-03-21T19:37:15.350Z,0.00
2019-03-21T19:38:15.416Z,0.00
2019-03-21T19:39:15.338Z,0.00
2019-03-21T19:40:15.319Z,0.00
2019-03-21T19:41:15.308Z,0.00
2019-03-21T19:42:15.300Z,0.00
2019-03-21T19:43:15.317Z,0.00
2019-03-21T19:44:15.282Z,0.00
2019-03-21T19:45:15.264Z,0.00
2019-03-21T19:46:15.251Z,0.00
2019-03-21T19:47:23.835Z,0.00
2019-03-21T19:48:16.229Z,0.00
2019-03-21T19:49:15.297Z,0.00
2019-03-21T19:50:15.225Z,0.00
2019-03-21T19:51:15.207Z,0.00
2019-03-21T19:52:15.195Z,0.00
2019-03-21T19:53:15.173Z,0.00
2019-03-21T19:54:15.169Z,0.00
2019-03-21T19:55:15.167Z,0.00
2019-03-21T19:56:15.161Z,0.00
2019-03-21T19:57:15.170Z,0.00
2019-03-21T19:58:15.137Z,0.00
2019-03-21T19:59:15.120Z,0.00
2019-03-21T20:00:15.110Z,0.00
2019-03-21T20:01:15.089Z,0.00
2019-03-21T20:02:15.088Z,0.00
2019-03-21T20:03:15.073Z,0.00
2019-03-21T20:04:15.104Z,0.00
2019-03-21T20:05:15.082Z,0.00
2019-03-21T20:06:15.028Z,0.00
2019-03-21T20:07:15.018Z,0.00
2019-03-21T20:08:15.008Z,0.00
2019-03-21T20:09:14.996Z,0.00
2019-03-21T20:10:14.994Z,0.00
2019-03-21T20:11:15.114Z,0.00
2019-03-21T20:12:15.027Z,0.00
2019-03-21T20:13:15.010Z,0.00
2019-03-21T20:14:14.996Z,0.00
2019-03-21T20:15:14.946Z,0.00
2019-03-21T20:16:14.921Z,0.00
2019-03-21T20:17:14.919Z,0.00
2019-03-21T20:18:14.895Z,0.00
2019-03-21T20:19:14.966Z,0.00
2019-03-21T20:20:15.016Z,0.00
2019-03-21T20:21:14.928Z,0.00
2019-03-21T20:22:14.928Z,0.00
2019-03-21T20:23:14.841Z,0.00
2019-03-21T20:24:14.829Z,0.00
2019-03-21T20:25:14.839Z,0.00
2019-03-21T20:26:14.807Z,0.00
2019-03-21T20:27:14.816Z,0.00
2019-03-21T20:28:14.785Z,0.00
2019-03-21T20:29:14.891Z,0.00
2019-03-21T20:30:14.784Z,0.00
2019-03-21T20:31:14.749Z,0.00
2019-03-21T20:32:20.501Z,0.00
2019-03-21T20:33:15.731Z,0.00
2019-03-21T20:34:14.737Z,0.00
2019-03-21T20:35:14.712Z,0.00
2019-03-21T20:36:14.712Z,0.00
2019-03-21T20:37:14.690Z,0.00
2019-03-21T20:38:14.682Z,0.00
2019-03-21T20:39:14.663Z,0.00
2019-03-21T20:40:14.654Z,0.00
2019-03-21T20:41:14.650Z,0.00
2019-03-21T20:42:14.629Z,0.00
2019-03-21T20:43:14.636Z,0.00
2019-03-21T20:44:15.616Z,0.00
2019-03-21T20:45:14.596Z,0.00
2019-03-21T20:46:14.591Z,0.00
2019-03-21T20:47:14.572Z,0.00
2019-03-21T20:48:14.562Z,0.00
2019-03-21T20:49:14.548Z,0.00
2019-03-21T20:50:14.545Z,0.00
2019-03-21T20:51:14.545Z,0.00
2019-03-21T20:52:14.518Z,0.00
2019-03-21T20:53:14.513Z,0.00
2019-03-21T20:54:14.496Z,0.00
2019-03-21T20:55:14.487Z,0.00
2019-03-21T20:56:14.487Z,0.00
2019-03-21T20:57:14.482Z,0.00
2019-03-21T20:58:14.450Z,0.00
2019-03-21T20:59:14.444Z,0.00
2019-03-21T21:00:14.426Z,0.00